sensor_id;sensor_type;location;lat;lon;timestamp;P1;durP1;ratioP1;P2;durP2;ratioP2
47349;SDS011;33088;51.982;5.872;2023-04-24T00:01:47;9.00;;;8.10;;
47349;SDS011;33088;51.982;5.872;2023-04-24T00:04:13;8.77;;;7.88;;
47349;SDS011;33088;51.982;5.872;2023-04-24T00:06:41;10.50;;;8.73;;
47349;SDS011;33088;51.982;5.872;2023-04-24T00:09:14;9.55;;;8.40;;
47349;SDS011;33088;51.982;5.872;2023-04-24T00:11:40;9.88;;;8.88;;
47349;SDS011;33088;51.982;5.872;2023-04-24T00:14:06;8.77;;;7.78;;
47349;SDS011;33088;51.982;5.872;2023-04-24T00:16:32;9.35;;;8.55;;
47349;SDS011;33088;51.982;5.872;2023-04-24T00:18:58;8.82;;;7.78;;
47349;SDS011;33088;51.982;5.872;2023-04-24T00:21:25;8.25;;;7.45;;
47349;SDS011;33088;51.982;5.872;2023-04-24T00:23:51;8.82;;;7.90;;
47349;SDS011;33088;51.982;5.872;2023-04-24T00:26:17;7.15;;;6.50;;
47349;SDS011;33088;51.982;5.872;2023-04-24T00:28:45;5.93;;;5.30;;
47349;SDS011;33088;51.982;5.872;2023-04-24T00:31:11;5.47;;;4.15;;
47349;SDS011;33088;51.982;5.872;2023-04-24T00:33:38;4.30;;;4.00;;
47349;SDS011;33088;51.982;5.872;2023-04-24T00:36:03;4.43;;;3.38;;
47349;SDS011;33088;51.982;5.872;2023-04-24T00:38:29;4.90;;;4.30;;
47349;SDS011;33088;51.982;5.872;2023-04-24T00:40:55;4.75;;;4.40;;
47349;SDS011;33088;51.982;5.872;2023-04-24T00:43:21;4.40;;;4.10;;
47349;SDS011;33088;51.982;5.872;2023-04-24T00:45:47;5.00;;;4.07;;
47349;SDS011;33088;51.982;5.872;2023-04-24T00:48:12;4.07;;;3.78;;
47349;SDS011;33088;51.982;5.872;2023-04-24T00:50:39;6.05;;;3.80;;
47349;SDS011;33088;51.982;5.872;2023-04-24T00:53:05;6.38;;;4.65;;
47349;SDS011;33088;51.982;5.872;2023-04-24T00:55:31;5.88;;;5.47;;
47349;SDS011;33088;51.982;5.872;2023-04-24T00:57:57;5.35;;;4.93;;
47349;SDS011;33088;51.982;5.872;2023-04-24T01:00:23;6.00;;;5.20;;
47349;SDS011;33088;51.982;5.872;2023-04-24T01:02:49;7.10;;;6.43;;
47349;SDS011;33088;51.982;5.872;2023-04-24T01:05:16;8.57;;;7.78;;
47349;SDS011;33088;51.982;5.872;2023-04-24T01:07:43;9.25;;;8.35;;
47349;SDS011;33088;51.982;5.872;2023-04-24T01:10:11;11.05;;;9.23;;
47349;SDS011;33088;51.982;5.872;2023-04-24T01:12:39;10.43;;;8.48;;
47349;SDS011;33088;51.982;5.872;2023-04-24T01:15:05;11.32;;;10.15;;
47349;SDS011;33088;51.982;5.872;2023-04-24T01:17:34;13.73;;;12.15;;
47349;SDS011;33088;51.982;5.872;2023-04-24T01:20:00;18.77;;;13.65;;
47349;SDS011;33088;51.982;5.872;2023-04-24T01:22:30;18.02;;;14.82;;
47349;SDS011;33088;51.982;5.872;2023-04-24T01:24:57;23.17;;;15.75;;
47349;SDS011;33088;51.982;5.872;2023-04-24T01:27:23;22.40;;;16.45;;
47349;SDS011;33088;51.982;5.872;2023-04-24T01:29:49;21.63;;;16.70;;
47349;SDS011;33088;51.982;5.872;2023-04-24T01:32:17;26.42;;;18.45;;
47349;SDS011;33088;51.982;5.872;2023-04-24T01:34:43;22.95;;;15.85;;
47349;SDS011;33088;51.982;5.872;2023-04-24T01:37:10;19.95;;;14.45;;
47349;SDS011;33088;51.982;5.872;2023-04-24T01:39:35;16.58;;;14.40;;
47349;SDS011;33088;51.982;5.872;2023-04-24T01:42:01;17.92;;;14.00;;
47349;SDS011;33088;51.982;5.872;2023-04-24T01:44:27;16.80;;;14.73;;
47349;SDS011;33088;51.982;5.872;2023-04-24T01:46:54;18.30;;;14.45;;
47349;SDS011;33088;51.982;5.872;2023-04-24T01:49:20;14.90;;;13.35;;
47349;SDS011;33088;51.982;5.872;2023-04-24T01:51:46;12.60;;;10.68;;
47349;SDS011;33088;51.982;5.872;2023-04-24T01:54:12;13.98;;;11.10;;
47349;SDS011;33088;51.982;5.872;2023-04-24T01:56:40;13.07;;;11.63;;
47349;SDS011;33088;51.982;5.872;2023-04-24T01:59:11;14.27;;;12.77;;
47349;SDS011;33088;51.982;5.872;2023-04-24T02:01:38;16.67;;;13.77;;
47349;SDS011;33088;51.982;5.872;2023-04-24T02:04:04;17.40;;;14.55;;
47349;SDS011;33088;51.982;5.872;2023-04-24T02:06:32;19.38;;;14.93;;
47349;SDS011;33088;51.982;5.872;2023-04-24T02:08:59;18.95;;;15.25;;
47349;SDS011;33088;51.982;5.872;2023-04-24T02:11:25;19.25;;;15.63;;
47349;SDS011;33088;51.982;5.872;2023-04-24T02:13:51;26.75;;;19.90;;
47349;SDS011;33088;51.982;5.872;2023-04-24T02:16:17;29.48;;;20.48;;
47349;SDS011;33088;51.982;5.872;2023-04-24T02:18:43;25.17;;;20.75;;
47349;SDS011;33088;51.982;5.872;2023-04-24T02:21:10;34.17;;;23.15;;
47349;SDS011;33088;51.982;5.872;2023-04-24T02:23:36;39.42;;;27.08;;
47349;SDS011;33088;51.982;5.872;2023-04-24T02:26:02;37.22;;;28.27;;
47349;SDS011;33088;51.982;5.872;2023-04-24T02:28:27;39.67;;;30.10;;
47349;SDS011;33088;51.982;5.872;2023-04-24T02:30:53;37.50;;;28.45;;
47349;SDS011;33088;51.982;5.872;2023-04-24T02:33:21;41.20;;;30.15;;
47349;SDS011;33088;51.982;5.872;2023-04-24T02:35:47;36.28;;;27.95;;
47349;SDS011;33088;51.982;5.872;2023-04-24T02:38:12;37.72;;;27.90;;
47349;SDS011;33088;51.982;5.872;2023-04-24T02:40:38;35.83;;;27.58;;
47349;SDS011;33088;51.982;5.872;2023-04-24T02:43:04;38.45;;;26.75;;
47349;SDS011;33088;51.982;5.872;2023-04-24T02:45:29;37.40;;;26.67;;
47349;SDS011;33088;51.982;5.872;2023-04-24T02:47:55;35.80;;;27.83;;
47349;SDS011;33088;51.982;5.872;2023-04-24T02:50:21;43.08;;;27.88;;
47349;SDS011;33088;51.982;5.872;2023-04-24T02:52:49;37.70;;;27.17;;
47349;SDS011;33088;51.982;5.872;2023-04-24T02:55:15;48.25;;;29.63;;
47349;SDS011;33088;51.982;5.872;2023-04-24T02:57:41;38.25;;;27.38;;
47349;SDS011;33088;51.982;5.872;2023-04-24T03:00:07;42.38;;;28.38;;
47349;SDS011;33088;51.982;5.872;2023-04-24T03:02:34;35.88;;;27.25;;
47349;SDS011;33088;51.982;5.872;2023-04-24T03:04:59;40.25;;;27.83;;
47349;SDS011;33088;51.982;5.872;2023-04-24T03:07:25;34.03;;;26.02;;
47349;SDS011;33088;51.982;5.872;2023-04-24T03:09:51;40.70;;;26.45;;
47349;SDS011;33088;51.982;5.872;2023-04-24T03:12:17;31.35;;;24.70;;
47349;SDS011;33088;51.982;5.872;2023-04-24T03:14:43;40.03;;;27.20;;
47349;SDS011;33088;51.982;5.872;2023-04-24T03:17:09;40.97;;;27.42;;
47349;SDS011;33088;51.982;5.872;2023-04-24T03:19:34;43.55;;;28.92;;
47349;SDS011;33088;51.982;5.872;2023-04-24T03:22:07;42.83;;;27.45;;
47349;SDS011;33088;51.982;5.872;2023-04-24T03:24:35;42.30;;;27.63;;
47349;SDS011;33088;51.982;5.872;2023-04-24T03:27:01;45.38;;;29.00;;
47349;SDS011;33088;51.982;5.872;2023-04-24T03:29:43;42.50;;;28.17;;
47349;SDS011;33088;51.982;5.872;2023-04-24T03:32:09;40.05;;;28.42;;
47349;SDS011;33088;51.982;5.872;2023-04-24T03:34:37;42.72;;;30.83;;
47349;SDS011;33088;51.982;5.872;2023-04-24T03:37:02;44.08;;;31.98;;
47349;SDS011;33088;51.982;5.872;2023-04-24T03:39:29;41.15;;;31.50;;
47349;SDS011;33088;51.982;5.872;2023-04-24T03:41:55;56.30;;;35.42;;
47349;SDS011;33088;51.982;5.872;2023-04-24T03:44:27;44.65;;;33.15;;
47349;SDS011;33088;51.982;5.872;2023-04-24T03:46:54;51.67;;;33.97;;
47349;SDS011;33088;51.982;5.872;2023-04-24T03:49:21;52.03;;;35.60;;
47349;SDS011;33088;51.982;5.872;2023-04-24T03:51:47;49.20;;;34.83;;
47349;SDS011;33088;51.982;5.872;2023-04-24T03:54:19;66.97;;;39.58;;
47349;SDS011;33088;51.982;5.872;2023-04-24T03:56:45;57.10;;;38.50;;
47349;SDS011;33088;51.982;5.872;2023-04-24T03:59:11;52.75;;;38.30;;
47349;SDS011;33088;51.982;5.872;2023-04-24T04:01:38;56.40;;;40.33;;
47349;SDS011;33088;51.982;5.872;2023-04-24T04:04:10;64.75;;;42.30;;
47349;SDS011;33088;51.982;5.872;2023-04-24T04:06:36;59.47;;;41.60;;
47349;SDS011;33088;51.982;5.872;2023-04-24T04:09:02;71.20;;;44.80;;
47349;SDS011;33088;51.982;5.872;2023-04-24T04:11:28;66.45;;;41.78;;
47349;SDS011;33088;51.982;5.872;2023-04-24T04:13:58;64.28;;;43.97;;
47349;SDS011;33088;51.982;5.872;2023-04-24T04:16:24;63.85;;;42.72;;
47349;SDS011;33088;51.982;5.872;2023-04-24T04:18:54;60.28;;;42.38;;
47349;SDS011;33088;51.982;5.872;2023-04-24T04:21:22;59.60;;;41.22;;
47349;SDS011;33088;51.982;5.872;2023-04-24T04:23:53;70.90;;;43.50;;
47349;SDS011;33088;51.982;5.872;2023-04-24T04:26:25;66.00;;;42.78;;
47349;SDS011;33088;51.982;5.872;2023-04-24T04:29:08;60.53;;;39.80;;
47349;SDS011;33088;51.982;5.872;2023-04-24T04:31:37;55.58;;;39.20;;
47349;SDS011;33088;51.982;5.872;2023-04-24T04:34:08;59.63;;;40.22;;
47349;SDS011;33088;51.982;5.872;2023-04-24T04:36:34;54.30;;;38.83;;
47349;SDS011;33088;51.982;5.872;2023-04-24T04:39:10;49.28;;;38.05;;
47349;SDS011;33088;51.982;5.872;2023-04-24T04:41:45;49.72;;;37.03;;
47349;SDS011;33088;51.982;5.872;2023-04-24T04:44:16;56.30;;;38.30;;
47349;SDS011;33088;51.982;5.872;2023-04-24T04:46:41;57.85;;;39.83;;
47349;SDS011;33088;51.982;5.872;2023-04-24T04:49:16;59.78;;;38.83;;
47349;SDS011;33088;51.982;5.872;2023-04-24T04:51:41;51.05;;;35.67;;
47349;SDS011;33088;51.982;5.872;2023-04-24T04:54:07;61.97;;;40.58;;
47349;SDS011;33088;51.982;5.872;2023-04-24T04:56:33;50.72;;;36.13;;
47349;SDS011;33088;51.982;5.872;2023-04-24T04:59:04;45.97;;;34.97;;
47349;SDS011;33088;51.982;5.872;2023-04-24T05:01:31;54.40;;;36.20;;
47349;SDS011;33088;51.982;5.872;2023-04-24T05:03:57;52.00;;;37.92;;
47349;SDS011;33088;51.982;5.872;2023-04-24T05:06:23;49.30;;;35.00;;
47349;SDS011;33088;51.982;5.872;2023-04-24T05:08:48;46.13;;;34.20;;
47349;SDS011;33088;51.982;5.872;2023-04-24T05:11:26;43.40;;;33.03;;
47349;SDS011;33088;51.982;5.872;2023-04-24T05:13:53;44.22;;;33.00;;
47349;SDS011;33088;51.982;5.872;2023-04-24T05:16:27;46.53;;;32.97;;
47349;SDS011;33088;51.982;5.872;2023-04-24T05:18:54;46.58;;;31.83;;
47349;SDS011;33088;51.982;5.872;2023-04-24T05:21:25;43.80;;;31.30;;
47349;SDS011;33088;51.982;5.872;2023-04-24T05:23:51;48.53;;;32.92;;
47349;SDS011;33088;51.982;5.872;2023-04-24T05:26:29;43.30;;;31.45;;
47349;SDS011;33088;51.982;5.872;2023-04-24T05:28:57;38.50;;;30.63;;
47349;SDS011;33088;51.982;5.872;2023-04-24T05:31:22;41.75;;;30.33;;
47349;SDS011;33088;51.982;5.872;2023-04-24T05:33:48;36.17;;;27.88;;
47349;SDS011;33088;51.982;5.872;2023-04-24T05:36:14;36.97;;;28.98;;
47349;SDS011;33088;51.982;5.872;2023-04-24T05:38:40;36.40;;;27.58;;
47349;SDS011;33088;51.982;5.872;2023-04-24T05:41:06;35.28;;;26.05;;
47349;SDS011;33088;51.982;5.872;2023-04-24T05:43:31;35.92;;;26.10;;
47349;SDS011;33088;51.982;5.872;2023-04-24T05:45:57;31.95;;;24.02;;
47349;SDS011;33088;51.982;5.872;2023-04-24T05:48:23;29.38;;;23.30;;
47349;SDS011;33088;51.982;5.872;2023-04-24T05:50:48;37.45;;;25.05;;
47349;SDS011;33088;51.982;5.872;2023-04-24T05:53:14;25.02;;;20.92;;
47349;SDS011;33088;51.982;5.872;2023-04-24T05:55:40;25.88;;;21.80;;
47349;SDS011;33088;51.982;5.872;2023-04-24T05:58:06;25.25;;;21.42;;
47349;SDS011;33088;51.982;5.872;2023-04-24T06:00:39;27.85;;;20.60;;
47349;SDS011;33088;51.982;5.872;2023-04-24T06:03:10;29.50;;;21.65;;
47349;SDS011;33088;51.982;5.872;2023-04-24T06:05:35;26.38;;;21.50;;
47349;SDS011;33088;51.982;5.872;2023-04-24T06:08:02;26.50;;;19.17;;
47349;SDS011;33088;51.982;5.872;2023-04-24T06:10:31;24.13;;;18.00;;
47349;SDS011;33088;51.982;5.872;2023-04-24T06:12:57;29.20;;;21.35;;
47349;SDS011;33088;51.982;5.872;2023-04-24T06:15:27;23.52;;;17.77;;
47349;SDS011;33088;51.982;5.872;2023-04-24T06:18:02;18.63;;;14.02;;
47349;SDS011;33088;51.982;5.872;2023-04-24T06:20:28;18.23;;;14.68;;
47349;SDS011;33088;51.982;5.872;2023-04-24T06:22:54;18.00;;;13.30;;
47349;SDS011;33088;51.982;5.872;2023-04-24T06:25:19;17.60;;;14.70;;
47349;SDS011;33088;51.982;5.872;2023-04-24T06:27:45;18.13;;;13.85;;
47349;SDS011;33088;51.982;5.872;2023-04-24T06:30:11;15.70;;;13.07;;
47349;SDS011;33088;51.982;5.872;2023-04-24T06:32:37;15.85;;;12.95;;
47349;SDS011;33088;51.982;5.872;2023-04-24T06:35:03;18.83;;;14.60;;
47349;SDS011;33088;51.982;5.872;2023-04-24T06:37:29;18.98;;;14.18;;
47349;SDS011;33088;51.982;5.872;2023-04-24T06:39:55;17.15;;;14.07;;
47349;SDS011;33088;51.982;5.872;2023-04-24T06:42:21;17.45;;;14.27;;
47349;SDS011;33088;51.982;5.872;2023-04-24T06:44:48;12.43;;;11.10;;
47349;SDS011;33088;51.982;5.872;2023-04-24T06:47:14;15.38;;;12.52;;
47349;SDS011;33088;51.982;5.872;2023-04-24T06:49:40;14.95;;;9.70;;
47349;SDS011;33088;51.982;5.872;2023-04-24T06:52:06;12.68;;;10.02;;
47349;SDS011;33088;51.982;5.872;2023-04-24T06:54:32;11.88;;;9.05;;
47349;SDS011;33088;51.982;5.872;2023-04-24T06:56:58;13.35;;;8.52;;
47349;SDS011;33088;51.982;5.872;2023-04-24T06:59:26;10.18;;;7.18;;
47349;SDS011;33088;51.982;5.872;2023-04-24T07:01:52;8.82;;;7.57;;
47349;SDS011;33088;51.982;5.872;2023-04-24T07:04:18;7.53;;;6.72;;
47349;SDS011;33088;51.982;5.872;2023-04-24T07:06:44;7.65;;;6.05;;
47349;SDS011;33088;51.982;5.872;2023-04-24T07:09:11;5.68;;;5.10;;
47349;SDS011;33088;51.982;5.872;2023-04-24T07:11:38;12.50;;;6.28;;
47349;SDS011;33088;51.982;5.872;2023-04-24T07:14:05;5.95;;;5.45;;
47349;SDS011;33088;51.982;5.872;2023-04-24T07:16:36;5.68;;;5.03;;
47349;SDS011;33088;51.982;5.872;2023-04-24T07:19:02;6.50;;;5.72;;
47349;SDS011;33088;51.982;5.872;2023-04-24T07:21:28;6.15;;;4.80;;
47349;SDS011;33088;51.982;5.872;2023-04-24T07:23:53;6.18;;;5.30;;
47349;SDS011;33088;51.982;5.872;2023-04-24T07:26:19;5.18;;;4.68;;
47349;SDS011;33088;51.982;5.872;2023-04-24T07:28:45;5.28;;;4.40;;
47349;SDS011;33088;51.982;5.872;2023-04-24T07:31:11;5.20;;;4.20;;
47349;SDS011;33088;51.982;5.872;2023-04-24T07:33:37;3.30;;;3.00;;
47349;SDS011;33088;51.982;5.872;2023-04-24T07:36:03;4.22;;;3.53;;
47349;SDS011;33088;51.982;5.872;2023-04-24T07:38:30;5.63;;;4.65;;
47349;SDS011;33088;51.982;5.872;2023-04-24T07:40:56;4.25;;;3.72;;
47349;SDS011;33088;51.982;5.872;2023-04-24T07:43:21;7.32;;;4.78;;
47349;SDS011;33088;51.982;5.872;2023-04-24T07:45:48;7.45;;;5.35;;
47349;SDS011;33088;51.982;5.872;2023-04-24T07:48:15;9.13;;;5.75;;
47349;SDS011;33088;51.982;5.872;2023-04-24T07:50:42;13.13;;;6.57;;
47349;SDS011;33088;51.982;5.872;2023-04-24T07:53:09;11.48;;;7.38;;
47349;SDS011;33088;51.982;5.872;2023-04-24T07:55:35;14.40;;;8.48;;
47349;SDS011;33088;51.982;5.872;2023-04-24T07:58:00;9.93;;;7.75;;
47349;SDS011;33088;51.982;5.872;2023-04-24T08:00:26;13.60;;;9.95;;
47349;SDS011;33088;51.982;5.872;2023-04-24T08:02:52;15.57;;;10.75;;
47349;SDS011;33088;51.982;5.872;2023-04-24T08:05:18;18.30;;;12.55;;
47349;SDS011;33088;51.982;5.872;2023-04-24T08:07:44;17.10;;;12.07;;
47349;SDS011;33088;51.982;5.872;2023-04-24T08:10:13;16.30;;;12.00;;
47349;SDS011;33088;51.982;5.872;2023-04-24T08:12:40;19.60;;;13.90;;
47349;SDS011;33088;51.982;5.872;2023-04-24T08:15:06;16.90;;;13.65;;
47349;SDS011;33088;51.982;5.872;2023-04-24T08:17:33;24.15;;;13.23;;
47349;SDS011;33088;51.982;5.872;2023-04-24T08:20:00;21.08;;;13.80;;
47349;SDS011;33088;51.982;5.872;2023-04-24T08:22:27;16.23;;;12.23;;
47349;SDS011;33088;51.982;5.872;2023-04-24T08:24:53;25.27;;;14.07;;
47349;SDS011;33088;51.982;5.872;2023-04-24T08:27:21;19.10;;;14.23;;
47349;SDS011;33088;51.982;5.872;2023-04-24T08:29:46;18.23;;;12.88;;
47349;SDS011;33088;51.982;5.872;2023-04-24T08:32:12;21.00;;;13.23;;
47349;SDS011;33088;51.982;5.872;2023-04-24T08:34:37;15.73;;;12.13;;
47349;SDS011;33088;51.982;5.872;2023-04-24T08:37:03;24.63;;;13.73;;
47349;SDS011;33088;51.982;5.872;2023-04-24T08:39:29;23.88;;;14.40;;
47349;SDS011;33088;51.982;5.872;2023-04-24T08:41:55;19.42;;;13.60;;
47349;SDS011;33088;51.982;5.872;2023-04-24T08:44:21;20.67;;;13.35;;
47349;SDS011;33088;51.982;5.872;2023-04-24T08:46:49;25.88;;;14.07;;
47349;SDS011;33088;51.982;5.872;2023-04-24T08:49:16;17.48;;;12.73;;
47349;SDS011;33088;51.982;5.872;2023-04-24T08:51:43;22.40;;;13.45;;
47349;SDS011;33088;51.982;5.872;2023-04-24T08:54:10;18.30;;;13.15;;
47349;SDS011;33088;51.982;5.872;2023-04-24T08:56:37;16.33;;;11.30;;
47349;SDS011;33088;51.982;5.872;2023-04-24T08:59:05;20.80;;;11.82;;
47349;SDS011;33088;51.982;5.872;2023-04-24T09:01:31;21.98;;;11.27;;
47349;SDS011;33088;51.982;5.872;2023-04-24T09:03:59;18.88;;;11.63;;
47349;SDS011;33088;51.982;5.872;2023-04-24T09:06:28;15.73;;;9.57;;
47349;SDS011;33088;51.982;5.872;2023-04-24T09:08:55;18.13;;;8.10;;
47349;SDS011;33088;51.982;5.872;2023-04-24T09:11:25;9.93;;;6.78;;
47349;SDS011;33088;51.982;5.872;2023-04-24T09:13:52;20.88;;;8.07;;
47349;SDS011;33088;51.982;5.872;2023-04-24T09:16:19;16.65;;;6.93;;
47349;SDS011;33088;51.982;5.872;2023-04-24T09:18:45;15.43;;;7.78;;
47349;SDS011;33088;51.982;5.872;2023-04-24T09:21:11;17.67;;;6.47;;
47349;SDS011;33088;51.982;5.872;2023-04-24T09:23:37;16.08;;;6.47;;
47349;SDS011;33088;51.982;5.872;2023-04-24T09:26:03;15.55;;;6.22;;
47349;SDS011;33088;51.982;5.872;2023-04-24T09:28:34;16.30;;;5.78;;
47349;SDS011;33088;51.982;5.872;2023-04-24T09:31:05;11.65;;;6.35;;
47349;SDS011;33088;51.982;5.872;2023-04-24T09:33:34;20.40;;;5.10;;
47349;SDS011;33088;51.982;5.872;2023-04-24T09:36:00;14.40;;;5.43;;
47349;SDS011;33088;51.982;5.872;2023-04-24T09:38:31;15.52;;;5.28;;
47349;SDS011;33088;51.982;5.872;2023-04-24T09:41:01;13.93;;;4.72;;
47349;SDS011;33088;51.982;5.872;2023-04-24T09:43:35;12.18;;;4.28;;
47349;SDS011;33088;51.982;5.872;2023-04-24T09:46:05;15.32;;;5.18;;
47349;SDS011;33088;51.982;5.872;2023-04-24T09:48:35;11.75;;;4.00;;
47349;SDS011;33088;51.982;5.872;2023-04-24T09:51:02;19.92;;;4.10;;
47349;SDS011;33088;51.982;5.872;2023-04-24T09:53:30;13.45;;;3.65;;
47349;SDS011;33088;51.982;5.872;2023-04-24T09:56:02;17.67;;;4.53;;
47349;SDS011;33088;51.982;5.872;2023-04-24T09:58:35;9.35;;;3.92;;
47349;SDS011;33088;51.982;5.872;2023-04-24T10:01:01;11.20;;;3.42;;
47349;SDS011;33088;51.982;5.872;2023-04-24T10:03:29;12.77;;;3.55;;
47349;SDS011;33088;51.982;5.872;2023-04-24T10:05:59;14.98;;;3.50;;
47349;SDS011;33088;51.982;5.872;2023-04-24T10:08:25;8.10;;;3.40;;
47349;SDS011;33088;51.982;5.872;2023-04-24T10:13:24;15.85;;;3.47;;
47349;SDS011;33088;51.982;5.872;2023-04-24T10:15:53;14.20;;;4.22;;
47349;SDS011;33088;51.982;5.872;2023-04-24T10:18:19;10.60;;;3.97;;
47349;SDS011;33088;51.982;5.872;2023-04-24T10:20:46;15.85;;;3.17;;
47349;SDS011;33088;51.982;5.872;2023-04-24T10:23:12;15.13;;;4.10;;
47349;SDS011;33088;51.982;5.872;2023-04-24T10:25:37;13.13;;;3.00;;
47349;SDS011;33088;51.982;5.872;2023-04-24T10:28:04;10.65;;;4.13;;
47349;SDS011;33088;51.982;5.872;2023-04-24T10:30:33;13.32;;;3.33;;
47349;SDS011;33088;51.982;5.872;2023-04-24T10:33:03;9.32;;;3.15;;
47349;SDS011;33088;51.982;5.872;2023-04-24T10:35:31;13.63;;;3.00;;
47349;SDS011;33088;51.982;5.872;2023-04-24T10:38:01;9.27;;;2.67;;
47349;SDS011;33088;51.982;5.872;2023-04-24T10:43:04;5.85;;;2.28;;
47349;SDS011;33088;51.982;5.872;2023-04-24T10:45:33;8.50;;;3.13;;
47349;SDS011;33088;51.982;5.872;2023-04-24T10:48:03;8.82;;;2.10;;
47349;SDS011;33088;51.982;5.872;2023-04-24T10:50:30;8.23;;;2.33;;
47349;SDS011;33088;51.982;5.872;2023-04-24T10:53:22;5.57;;;2.22;;
47349;SDS011;33088;51.982;5.872;2023-04-24T11:01:32;7.85;;;2.67;;
47349;SDS011;33088;51.982;5.872;2023-04-24T11:03:58;4.32;;;1.90;;
47349;SDS011;33088;51.982;5.872;2023-04-24T11:06:29;10.90;;;2.50;;
47349;SDS011;33088;51.982;5.872;2023-04-24T11:09:07;4.97;;;1.90;;
47349;SDS011;33088;51.982;5.872;2023-04-24T11:11:38;10.77;;;1.95;;
47349;SDS011;33088;51.982;5.872;2023-04-24T11:14:10;7.25;;;2.22;;
47349;SDS011;33088;51.982;5.872;2023-04-24T11:16:42;7.93;;;2.67;;
47349;SDS011;33088;51.982;5.872;2023-04-24T11:19:20;8.30;;;1.65;;
47349;SDS011;33088;51.982;5.872;2023-04-24T11:29:39;5.05;;;1.42;;
47349;SDS011;33088;51.982;5.872;2023-04-24T11:32:56;7.03;;;1.33;;
47349;SDS011;33088;51.982;5.872;2023-04-24T11:35:19;7.05;;;1.50;;
47349;SDS011;33088;51.982;5.872;2023-04-24T11:37:49;8.40;;;1.40;;
47349;SDS011;33088;51.982;5.872;2023-04-24T11:40:18;2.97;;;1.35;;
47349;SDS011;33088;51.982;5.872;2023-04-24T11:42:49;4.38;;;1.15;;
47349;SDS011;33088;51.982;5.872;2023-04-24T11:45:17;6.78;;;1.10;;
47349;SDS011;33088;51.982;5.872;2023-04-24T11:47:50;2.55;;;0.88;;
47349;SDS011;33088;51.982;5.872;2023-04-24T11:50:16;4.60;;;1.15;;
47349;SDS011;33088;51.982;5.872;2023-04-24T11:52:48;3.63;;;0.88;;
47349;SDS011;33088;51.982;5.872;2023-04-24T11:57:48;4.90;;;0.90;;
47349;SDS011;33088;51.982;5.872;2023-04-24T12:02:41;4.25;;;1.30;;
47349;SDS011;33088;51.982;5.872;2023-04-24T12:05:06;5.75;;;1.20;;
47349;SDS011;33088;51.982;5.872;2023-04-24T12:07:41;3.00;;;1.00;;
47349;SDS011;33088;51.982;5.872;2023-04-24T12:12:34;4.78;;;1.20;;
47349;SDS011;33088;51.982;5.872;2023-04-24T12:15:00;4.80;;;0.90;;
47349;SDS011;33088;51.982;5.872;2023-04-24T12:17:27;2.92;;;1.30;;
47349;SDS011;33088;51.982;5.872;2023-04-24T12:19:59;3.42;;;1.10;;
47349;SDS011;33088;51.982;5.872;2023-04-24T12:22:27;5.25;;;1.45;;
47349;SDS011;33088;51.982;5.872;2023-04-24T12:24:57;5.22;;;1.40;;
47349;SDS011;33088;51.982;5.872;2023-04-24T12:27:25;10.20;;;2.25;;
47349;SDS011;33088;51.982;5.872;2023-04-24T12:29:52;4.68;;;1.45;;
47349;SDS011;33088;51.982;5.872;2023-04-24T12:32:20;5.40;;;1.00;;
47349;SDS011;33088;51.982;5.872;2023-04-24T12:34:46;2.90;;;1.23;;
47349;SDS011;33088;51.982;5.872;2023-04-24T12:37:12;3.22;;;0.77;;
47349;SDS011;33088;51.982;5.872;2023-04-24T12:39:37;6.53;;;1.50;;
47349;SDS011;33088;51.982;5.872;2023-04-24T12:42:03;3.33;;;0.80;;
47349;SDS011;33088;51.982;5.872;2023-04-24T12:44:30;6.20;;;1.17;;
47349;SDS011;33088;51.982;5.872;2023-04-24T12:46:56;4.85;;;1.38;;
47349;SDS011;33088;51.982;5.872;2023-04-24T12:49:22;3.05;;;0.85;;
47349;SDS011;33088;51.982;5.872;2023-04-24T12:51:48;2.22;;;0.88;;
47349;SDS011;33088;51.982;5.872;2023-04-24T12:54:14;4.35;;;1.27;;
47349;SDS011;33088;51.982;5.872;2023-04-24T12:56:40;2.72;;;1.02;;
47349;SDS011;33088;51.982;5.872;2023-04-24T12:59:05;6.57;;;0.95;;
47349;SDS011;33088;51.982;5.872;2023-04-24T13:01:31;4.07;;;1.10;;
47349;SDS011;33088;51.982;5.872;2023-04-24T13:03:57;6.43;;;0.88;;
47349;SDS011;33088;51.982;5.872;2023-04-24T13:06:23;2.65;;;1.10;;
47349;SDS011;33088;51.982;5.872;2023-04-24T13:08:48;7.30;;;1.35;;
47349;SDS011;33088;51.982;5.872;2023-04-24T13:11:14;2.92;;;1.02;;
47349;SDS011;33088;51.982;5.872;2023-04-24T13:13:40;4.75;;;0.88;;
47349;SDS011;33088;51.982;5.872;2023-04-24T13:16:06;2.47;;;0.80;;
47349;SDS011;33088;51.982;5.872;2023-04-24T13:18:31;5.72;;;1.60;;
47349;SDS011;33088;51.982;5.872;2023-04-24T13:20:57;8.70;;;1.52;;
47349;SDS011;33088;51.982;5.872;2023-04-24T13:23:22;6.85;;;1.63;;
47349;SDS011;33088;51.982;5.872;2023-04-24T13:25:48;3.17;;;1.30;;
47349;SDS011;33088;51.982;5.872;2023-04-24T13:28:14;14.90;;;1.67;;
47349;SDS011;33088;51.982;5.872;2023-04-24T13:30:40;5.32;;;1.42;;
47349;SDS011;33088;51.982;5.872;2023-04-24T13:33:05;8.85;;;1.67;;
47349;SDS011;33088;51.982;5.872;2023-04-24T13:35:34;7.57;;;2.33;;
47349;SDS011;33088;51.982;5.872;2023-04-24T13:38:01;11.10;;;1.88;;
47349;SDS011;33088;51.982;5.872;2023-04-24T13:40:40;6.78;;;2.10;;
47349;SDS011;33088;51.982;5.872;2023-04-24T13:43:06;8.45;;;1.85;;
47349;SDS011;33088;51.982;5.872;2023-04-24T13:45:48;8.57;;;2.42;;
47349;SDS011;33088;51.982;5.872;2023-04-24T13:48:16;8.43;;;1.92;;
47349;SDS011;33088;51.982;5.872;2023-04-24T13:51:01;8.90;;;2.20;;
47349;SDS011;33088;51.982;5.872;2023-04-24T13:53:29;4.50;;;1.92;;
47349;SDS011;33088;51.982;5.872;2023-04-24T13:55:57;7.50;;;1.77;;
47349;SDS011;33088;51.982;5.872;2023-04-24T13:58:23;11.32;;;1.73;;
47349;SDS011;33088;51.982;5.872;2023-04-24T14:00:51;8.77;;;1.85;;
47349;SDS011;33088;51.982;5.872;2023-04-24T14:03:17;4.85;;;1.52;;
47349;SDS011;33088;51.982;5.872;2023-04-24T14:05:57;8.60;;;1.70;;
47349;SDS011;33088;51.982;5.872;2023-04-24T14:08:33;8.68;;;2.00;;
47349;SDS011;33088;51.982;5.872;2023-04-24T14:10:59;10.32;;;2.80;;
47349;SDS011;33088;51.982;5.872;2023-04-24T14:13:31;7.93;;;2.58;;
47349;SDS011;33088;51.982;5.872;2023-04-24T14:15:59;8.95;;;3.08;;
47349;SDS011;33088;51.982;5.872;2023-04-24T14:18:28;4.05;;;1.60;;
47349;SDS011;33088;51.982;5.872;2023-04-24T14:20:56;8.65;;;2.95;;
47349;SDS011;33088;51.982;5.872;2023-04-24T14:23:31;6.30;;;2.03;;
47349;SDS011;33088;51.982;5.872;2023-04-24T14:26:05;12.05;;;3.15;;
47349;SDS011;33088;51.982;5.872;2023-04-24T14:28:41;10.20;;;2.35;;
47349;SDS011;33088;51.982;5.872;2023-04-24T14:31:09;8.70;;;3.20;;
47349;SDS011;33088;51.982;5.872;2023-04-24T14:36:07;12.23;;;1.90;;
47349;SDS011;33088;51.982;5.872;2023-04-24T14:38:35;10.35;;;2.17;;
47349;SDS011;33088;51.982;5.872;2023-04-24T14:41:03;8.95;;;1.95;;
47349;SDS011;33088;51.982;5.872;2023-04-24T14:43:35;11.27;;;2.60;;
47349;SDS011;33088;51.982;5.872;2023-04-24T14:46:01;14.88;;;3.17;;
47349;SDS011;33088;51.982;5.872;2023-04-24T14:48:27;11.70;;;2.65;;
47349;SDS011;33088;51.982;5.872;2023-04-24T14:50:55;14.60;;;2.92;;
47349;SDS011;33088;51.982;5.872;2023-04-24T14:53:21;10.77;;;2.35;;
47349;SDS011;33088;51.982;5.872;2023-04-24T14:55:52;13.15;;;2.33;;
47349;SDS011;33088;51.982;5.872;2023-04-24T14:58:19;8.27;;;2.72;;
47349;SDS011;33088;51.982;5.872;2023-04-24T15:00:46;7.35;;;2.08;;
47349;SDS011;33088;51.982;5.872;2023-04-24T15:03:22;11.45;;;2.75;;
47349;SDS011;33088;51.982;5.872;2023-04-24T15:05:48;11.38;;;2.92;;